createdAt,value
2023-05-08T00:00:45.565Z,11.4718
2023-05-08T00:01:53.532Z,11.5116
2023-05-08T00:03:01.691Z,11.4822
2023-05-08T00:04:09.882Z,11.4685
2023-05-08T00:05:17.692Z,11.3077
2023-05-08T00:06:25.786Z,11.3192
2023-05-08T00:07:33.822Z,11.3342
2023-05-08T00:08:41.744Z,11.4456
2023-05-08T00:09:49.924Z,11.4216
2023-05-08T00:10:58.112Z,11.3188
2023-05-08T00:12:06.125Z,11.3813
2023-05-08T00:13:14.102Z,11.2827
2023-05-08T00:14:22.037Z,11.2976
2023-05-08T00:15:30.229Z,11.4269
2023-05-08T00:16:38.510Z,11.4054
2023-05-08T00:17:46.456Z,11.3577
2023-05-08T00:18:54.483Z,11.5664
2023-05-08T00:20:02.373Z,11.6247
2023-05-08T00:21:10.631Z,11.4246
2023-05-08T00:22:18.648Z,11.3260
2023-05-08T00:23:26.739Z,11.4700
2023-05-08T00:24:34.747Z,11.4632
2023-05-08T00:25:42.626Z,11.3331
2023-05-08T00:26:50.828Z,11.3462
2023-05-08T00:27:58.875Z,11.3514
2023-05-08T00:29:07.036Z,11.3865
2023-05-08T00:30:15.022Z,11.3310
2023-05-08T00:31:23.102Z,11.3754
2023-05-08T00:32:31.170Z,11.3565
2023-05-08T00:33:39.203Z,11.3197
2023-05-08T00:34:47.282Z,11.2125
2023-05-08T00:35:55.262Z,11.2665
2023-05-08T00:37:03.372Z,11.2448
2023-05-08T00:38:11.439Z,11.3750
2023-05-08T00:39:19.601Z,11.3262
2023-05-08T00:40:27.408Z,11.2158
2023-05-08T00:41:35.592Z,11.3825
2023-05-08T00:42:43.634Z,11.1013
2023-05-08T00:43:51.729Z,11.1265
2023-05-08T00:44:59.735Z,11.2490
2023-05-08T00:46:07.720Z,11.3426
2023-05-08T00:47:15.903Z,11.3384
2023-05-08T00:48:24.067Z,11.4029
2023-05-08T00:49:31.959Z,11.3121
2023-05-08T00:50:40.208Z,11.2251
2023-05-08T00:51:48.125Z,11.1662
2023-05-08T00:52:56.333Z,11.2167
2023-05-08T00:54:04.198Z,11.1530
2023-05-08T00:55:12.334Z,11.2009
2023-05-08T00:56:20.324Z,11.3733
2023-05-08T00:57:28.432Z,11.4918
2023-05-08T00:58:36.561Z,11.3487
2023-05-08T00:59:44.485Z,11.3045
2023-05-08T01:00:52.551Z,11.4798
2023-05-08T01:02:00.652Z,11.5997
2023-05-08T01:03:08.827Z,11.6047
2023-05-08T01:04:16.728Z,11.4361
2023-05-08T01:05:24.816Z,11.2986
2023-05-08T01:06:32.866Z,11.2698
2023-05-08T01:07:40.929Z,11.2057
2023-05-08T01:08:49.209Z,11.2825
2023-05-08T01:09:57.158Z,11.3506
2023-05-08T01:11:05.063Z,11.1874
2023-05-08T01:12:13.176Z,11.0552
2023-05-08T01:13:21.230Z,11.0193
2023-05-08T01:14:29.178Z,11.1444
2023-05-08T01:15:37.376Z,11.2820
2023-05-08T01:16:45.238Z,11.1710
2023-05-08T01:17:53.481Z,11.2841
2023-05-08T01:19:01.616Z,11.2524
2023-05-08T01:20:09.626Z,11.2881
2023-05-08T01:21:17.589Z,11.3646
2023-05-08T01:22:25.802Z,11.3533
2023-05-08T01:23:33.715Z,11.1246
2023-05-08T01:24:42.040Z,11.1883
2023-05-08T01:25:49.738Z,11.2223
2023-05-08T01:26:57.887Z,11.2844
2023-05-08T01:28:06.067Z,11.1753
2023-05-08T01:29:14.007Z,11.1004
2023-05-08T01:30:22.046Z,11.1387
2023-05-08T01:31:30.179Z,11.2394
2023-05-08T01:32:38.209Z,11.2749
2023-05-08T01:33:46.317Z,11.4527
2023-05-08T01:34:54.282Z,11.5454
2023-05-08T01:36:02.312Z,11.5212
2023-05-08T01:37:10.341Z,11.4958
2023-05-08T01:38:18.546Z,11.3915
2023-05-08T01:39:26.559Z,11.3634
2023-05-08T01:40:34.615Z,11.2877
2023-05-08T01:41:42.603Z,11.3676
2023-05-08T01:42:50.638Z,11.4868
2023-05-08T01:43:58.777Z,11.5288
2023-05-08T01:45:06.805Z,11.5032
2023-05-08T01:46:14.898Z,11.1662
2023-05-08T01:47:22.972Z,11.1923
2023-05-08T01:48:30.885Z,11.2772
2023-05-08T01:49:39.042Z,11.3857
2023-05-08T01:50:47.128Z,11.2535
2023-05-08T01:51:55.091Z,11.3293
2023-05-08T01:53:03.257Z,11.2919
2023-05-08T01:54:11.138Z,11.2476
2023-05-08T01:55:19.298Z,11.2820
2023-05-08T01:56:27.370Z,11.2490
2023-05-08T01:57:35.401Z,11.2375
2023-05-08T01:58:43.474Z,11.1128
2023-05-08T01:59:51.454Z,10.9877
2023-05-08T02:00:59.608Z,10.8555
2023-05-08T02:02:07.772Z,10.7943
2023-05-08T02:03:15.788Z,10.8791
2023-05-08T02:04:23.853Z,11.0025
2023-05-08T02:05:31.858Z,11.1000
2023-05-08T02:06:39.874Z,11.1015
2023-05-08T02:07:47.936Z,11.1063
2023-05-08T02:08:56.030Z,11.2986
2023-05-08T02:10:04.091Z,11.4471
2023-05-08T02:11:12.300Z,11.4250
2023-05-08T02:12:20.158Z,11.5887
2023-05-08T02:13:28.285Z,11.5107
2023-05-08T02:14:36.381Z,11.3718
2023-05-08T02:15:44.510Z,11.3634
2023-05-08T02:16:52.512Z,11.3564
2023-05-08T02:18:00.507Z,11.2827
2023-05-08T02:19:08.548Z,11.3754
2023-05-08T02:20:16.608Z,11.4218
2023-05-08T02:21:24.634Z,11.2532
2023-05-08T02:22:32.720Z,11.2684
2023-05-08T02:23:40.809Z,11.2240
2023-05-08T02:24:48.844Z,11.1500
2023-05-08T02:25:56.898Z,11.2049
2023-05-08T02:27:04.951Z,11.1589
2023-05-08T02:28:12.854Z,11.2074
2023-05-08T02:29:21.005Z,11.1893
2023-05-08T02:30:29.143Z,11.0500
2023-05-08T02:31:37.053Z,10.9922
2023-05-08T02:32:45.268Z,11.0083
2023-05-08T02:33:53.173Z,11.0399
2023-05-08T02:35:03.517Z,11.1277
2023-05-08T02:36:09.463Z,11.2011
2023-05-08T02:37:17.504Z,11.3194
2023-05-08T02:38:25.540Z,11.2906
2023-05-08T02:39:33.609Z,11.2629
2023-05-08T02:40:41.842Z,11.3068
2023-05-08T02:41:49.747Z,11.3577
2023-05-08T02:42:57.792Z,11.4088
2023-05-08T02:44:05.850Z,11.4136
2023-05-08T02:45:13.919Z,11.3787
2023-05-08T02:46:22.017Z,11.4500
2023-05-08T02:47:30.005Z,11.4428
2023-05-08T02:48:38.142Z,11.4563
2023-05-08T02:49:46.120Z,11.4935
2023-05-08T02:50:54.064Z,11.5208
2023-05-08T02:52:02.331Z,11.5009
2023-05-08T02:53:10.297Z,11.5856
2023-05-08T02:54:18.351Z,11.7111
2023-05-08T02:55:26.616Z,11.7914
2023-05-08T02:56:34.457Z,11.7632
2023-05-08T02:57:42.573Z,11.6339
2023-05-08T02:58:50.628Z,11.6488
2023-05-08T02:59:58.664Z,11.4876
2023-05-08T03:01:06.792Z,11.3998
2023-05-08T03:02:14.810Z,11.4025
2023-05-08T03:03:23.103Z,11.4216
2023-05-08T03:04:30.838Z,11.4855
2023-05-08T03:05:38.779Z,11.5351
2023-05-08T03:06:46.940Z,11.5984
2023-05-08T03:07:55.026Z,11.6852
2023-05-08T03:09:03.168Z,11.7781
2023-05-08T03:10:11.233Z,11.8193
2023-05-08T03:11:19.180Z,11.7497
2023-05-08T03:12:27.622Z,11.6509
2023-05-08T03:13:35.205Z,11.7457
2023-05-08T03:14:43.433Z,11.9070
2023-05-08T03:15:51.492Z,12.0289
2023-05-08T03:16:59.496Z,12.0592
2023-05-08T03:18:07.544Z,12.0934
2023-05-08T03:19:15.638Z,11.9715
2023-05-08T03:20:23.655Z,11.8290
2023-05-08T03:21:31.834Z,11.7451
2023-05-08T03:22:39.796Z,11.8717
2023-05-08T03:23:47.836Z,11.8817
2023-05-08T03:24:55.814Z,11.7350
2023-05-08T03:26:03.931Z,11.7390
2023-05-08T03:27:12.092Z,11.7647
2023-05-08T03:28:19.919Z,11.7119
2023-05-08T03:29:28.138Z,11.7792
2023-05-08T03:30:36.192Z,11.6716
2023-05-08T03:31:44.498Z,11.5675
2023-05-08T03:32:52.335Z,11.5000
2023-05-08T03:34:00.420Z,11.4832
2023-05-08T03:35:08.471Z,11.5574
2023-05-08T03:36:16.466Z,11.6808
2023-05-08T03:37:24.540Z,11.6688
2023-05-08T03:38:32.569Z,11.5082
2023-05-08T03:39:40.506Z,11.4418
2023-05-08T03:40:48.751Z,11.4042
2023-05-08T03:41:56.937Z,11.3596
2023-05-08T03:43:04.802Z,11.3363
2023-05-08T03:44:12.848Z,11.4410
2023-05-08T03:45:20.787Z,11.6308
2023-05-08T03:46:29.030Z,11.7418
2023-05-08T03:47:37.056Z,11.8015
2023-05-08T03:48:45.054Z,11.8181
2023-05-08T03:49:53.246Z,11.7762
2023-05-08T03:51:01.098Z,11.6554
2023-05-08T03:52:09.307Z,11.5433
2023-05-08T03:53:17.301Z,11.6715
2023-05-08T03:54:25.361Z,11.8103
2023-05-08T03:55:33.481Z,11.7901
2023-05-08T03:56:41.340Z,11.8014
2023-05-08T03:57:49.544Z,11.6558
2023-05-08T03:58:57.575Z,11.6821
2023-05-08T04:00:05.711Z,11.6747
2023-05-08T04:01:13.862Z,11.5440
2023-05-08T04:02:22.068Z,11.5101
2023-05-08T04:03:29.976Z,11.5109
2023-05-08T04:04:37.948Z,11.6810
2023-05-08T04:05:46.017Z,11.7222
2023-05-08T04:06:54.098Z,11.6997
2023-05-08T04:08:02.159Z,11.6570
2023-05-08T04:09:10.253Z,11.6692
2023-05-08T04:10:18.226Z,11.6285
2023-05-08T04:11:26.289Z,11.5149
2023-05-08T04:12:34.337Z,11.4010
2023-05-08T04:13:42.571Z,11.4149
2023-05-08T04:14:50.360Z,11.5259
2023-05-08T04:15:58.525Z,11.4882
2023-05-08T04:17:06.792Z,11.4948
2023-05-08T04:18:14.637Z,11.5261
2023-05-08T04:19:22.817Z,11.6818
2023-05-08T04:20:30.657Z,11.8132
2023-05-08T04:21:38.833Z,11.8002
2023-05-08T04:22:46.902Z,11.8185
2023-05-08T04:23:54.931Z,11.7228
2023-05-08T04:25:03.035Z,11.5305
2023-05-08T04:26:11.042Z,11.6116
2023-05-08T04:27:19.174Z,11.6938
2023-05-08T04:28:27.028Z,11.7537
2023-05-08T04:29:35.323Z,11.7685
2023-05-08T04:30:43.274Z,11.7207
2023-05-08T04:31:51.374Z,11.6486
2023-05-08T04:32:59.741Z,11.7111
2023-05-08T04:34:07.439Z,11.7691
2023-05-08T04:35:15.512Z,11.6966
2023-05-08T04:36:23.531Z,11.5105
2023-05-08T04:37:31.581Z,11.4920
2023-05-08T04:38:39.978Z,11.4178
2023-05-08T04:39:47.612Z,11.5685
2023-05-08T04:40:55.909Z,11.5923
2023-05-08T04:42:03.806Z,11.3966
2023-05-08T04:43:12.101Z,11.4712
2023-05-08T04:44:20.006Z,11.7144
2023-05-08T04:45:27.976Z,11.6770
2023-05-08T04:46:36.093Z,11.5330
2023-05-08T04:47:44.098Z,11.5545
2023-05-08T04:48:52.165Z,11.6179
2023-05-08T04:50:02.528Z,11.5456
2023-05-08T04:51:13.132Z,11.4730
2023-05-08T04:52:21.173Z,11.4676
2023-05-08T04:53:29.194Z,11.4559
2023-05-08T04:54:37.298Z,11.3716
2023-05-08T04:55:45.422Z,11.3152
2023-05-08T04:56:53.409Z,11.3903
2023-05-08T04:58:01.356Z,11.4166
2023-05-08T04:59:09.495Z,11.4224
2023-05-08T05:00:17.591Z,11.4288
2023-05-08T05:01:25.629Z,11.4571
2023-05-08T05:02:33.663Z,11.5019
2023-05-08T05:03:41.802Z,11.5646
2023-05-08T05:04:49.793Z,11.4969
2023-05-08T05:05:57.736Z,11.5400
2023-05-08T05:07:05.876Z,11.5189
2023-05-08T05:08:14.144Z,11.5309
2023-05-08T05:09:21.965Z,11.6577
2023-05-08T05:10:30.196Z,11.7634
2023-05-08T05:11:37.980Z,11.8052
2023-05-08T05:12:46.187Z,11.7159
2023-05-08T05:13:54.191Z,11.7611
2023-05-08T05:15:02.253Z,11.7249
2023-05-08T05:16:10.382Z,11.6568
2023-05-08T05:17:18.223Z,11.5545
2023-05-08T05:18:26.483Z,11.5009
2023-05-08T05:19:34.470Z,11.4628
2023-05-08T05:20:42.678Z,11.4758
2023-05-08T05:21:50.607Z,11.4037
2023-05-08T05:22:58.600Z,11.3777
2023-05-08T05:24:06.667Z,11.4386
2023-05-08T05:25:15.008Z,11.4677
2023-05-08T05:26:22.871Z,11.4670
2023-05-08T05:27:30.860Z,11.4929
2023-05-08T05:28:38.911Z,11.5004
2023-05-08T05:29:46.971Z,11.4878
2023-05-08T05:30:55.040Z,11.3615
2023-05-08T05:32:02.977Z,11.2125
2023-05-08T05:33:11.170Z,11.2724
2023-05-08T05:34:19.170Z,11.2934
2023-05-08T05:35:27.267Z,11.3264
2023-05-08T05:36:35.316Z,11.3987
2023-05-08T05:37:43.293Z,11.4639
2023-05-08T05:38:51.461Z,11.4563
2023-05-08T05:39:59.596Z,11.4576
2023-05-08T05:41:07.592Z,11.4227
2023-05-08T05:42:15.602Z,11.5089
2023-05-08T05:43:23.570Z,11.5891
2023-05-08T05:44:31.755Z,11.6648
2023-05-08T05:45:39.744Z,11.5595
2023-05-08T05:46:47.980Z,11.5515
2023-05-08T05:47:56.144Z,11.5349
2023-05-08T05:49:03.798Z,11.5645
2023-05-08T05:50:12.338Z,11.5591
2023-05-08T05:51:20.069Z,11.6436
2023-05-08T05:52:28.193Z,11.6554
2023-05-08T05:53:36.251Z,11.6381
2023-05-08T05:54:44.239Z,11.4821
2023-05-08T05:55:52.243Z,11.5763
2023-05-08T05:57:00.300Z,11.6350
2023-05-08T05:58:08.446Z,11.6686
2023-05-08T05:59:16.437Z,11.7319
2023-05-08T06:00:24.508Z,11.7638
2023-05-08T06:01:32.533Z,11.7180
2023-05-08T06:02:40.801Z,11.5948
2023-05-08T06:03:48.744Z,11.5643
2023-05-08T06:04:56.958Z,11.7197
2023-05-08T06:06:04.776Z,11.8717
2023-05-08T06:07:12.862Z,11.9558
2023-05-08T06:08:21.048Z,11.9660
2023-05-08T06:09:28.956Z,11.8120
2023-05-08T06:10:36.985Z,11.8631
2023-05-08T06:11:45.080Z,11.9427
2023-05-08T06:12:53.043Z,12.1018
2023-05-08T06:14:01.197Z,12.0543
2023-05-08T06:15:09.256Z,11.9608
2023-05-08T06:16:17.388Z,11.9599
2023-05-08T06:17:25.392Z,11.9148
2023-05-08T06:18:33.586Z,11.8668
2023-05-08T06:19:41.510Z,11.7821
2023-05-08T06:20:49.411Z,11.8857
2023-05-08T06:21:57.599Z,12.0407
2023-05-08T06:23:05.733Z,12.2286
2023-05-08T06:24:13.694Z,12.2433
2023-05-08T06:25:21.752Z,12.2822
2023-05-08T06:26:29.820Z,12.4256
2023-05-08T06:27:37.845Z,12.5021
2023-05-08T06:28:46.113Z,12.5294
2023-05-08T06:29:54.010Z,12.5954
2023-05-08T06:31:02.085Z,12.7268
2023-05-08T06:32:10.069Z,12.8214
2023-05-08T06:33:18.180Z,12.7888
2023-05-08T06:34:26.198Z,12.7604
2023-05-08T06:35:34.241Z,12.7976
2023-05-08T06:36:42.341Z,12.8340
2023-05-08T06:37:50.473Z,12.8620
2023-05-08T06:38:58.350Z,12.8178
2023-05-08T06:40:11.959Z,12.8044
2023-05-08T06:41:19.300Z,12.7198
2023-05-08T06:42:27.457Z,12.6536
2023-05-08T06:43:35.581Z,12.7430
2023-05-08T06:44:43.453Z,12.8096
2023-05-08T06:45:51.641Z,12.6807
2023-05-08T06:46:59.556Z,12.6473
2023-05-08T06:48:07.893Z,12.6770
2023-05-08T06:49:15.972Z,12.6293
2023-05-08T06:50:23.847Z,12.6803
2023-05-08T06:51:31.889Z,12.7613
2023-05-08T06:52:39.959Z,12.8699
2023-05-08T06:53:48.043Z,12.7240
2023-05-08T06:54:56.074Z,12.6324
2023-05-08T06:56:04.091Z,12.6265
2023-05-08T06:57:13.744Z,12.7798
2023-05-08T06:58:20.350Z,12.9116
2023-05-08T06:59:28.346Z,13.0396
2023-05-08T07:00:36.322Z,13.1045
2023-05-08T07:01:44.353Z,13.1033
2023-05-08T07:02:52.495Z,13.1039
2023-05-08T07:04:00.563Z,13.2056
2023-05-08T07:05:08.686Z,12.9877
2023-05-08T07:06:16.596Z,12.9975
2023-05-08T07:07:24.817Z,12.9950
2023-05-08T07:08:32.793Z,13.0057
2023-05-08T07:09:40.790Z,13.0049
2023-05-08T07:10:48.832Z,13.1304
2023-05-08T07:11:56.890Z,13.2426
2023-05-08T07:13:04.893Z,13.3803
2023-05-08T07:14:13.032Z,13.5392
2023-05-08T07:15:25.952Z,13.5210
2023-05-08T07:16:33.992Z,13.3354
2023-05-08T07:17:42.068Z,13.1813
2023-05-08T07:18:50.095Z,13.1241
2023-05-08T07:19:58.152Z,13.0608
2023-05-08T07:21:06.206Z,13.1140
2023-05-08T07:22:14.268Z,13.1081
2023-05-08T07:23:22.319Z,13.0949
2023-05-08T07:24:30.376Z,13.0591
2023-05-08T07:25:38.426Z,13.0663
2023-05-08T07:26:46.474Z,12.9927
2023-05-08T07:27:54.555Z,12.9000
2023-05-08T07:29:02.653Z,13.1571
2023-05-08T07:30:10.800Z,13.2775
2023-05-08T07:31:18.786Z,13.3396
2023-05-08T07:32:26.778Z,13.4743
2023-05-08T07:33:34.779Z,13.6671
2023-05-08T07:34:42.910Z,13.7049
2023-05-08T07:35:51.091Z,13.5977
2023-05-08T07:36:58.943Z,13.6555
2023-05-08T07:38:07.036Z,13.8110
2023-05-08T11:19:38.859Z,19.5710
2023-05-08T11:20:46.982Z,18.5858
2023-05-08T11:21:54.919Z,18.3872
2023-05-08T11:23:03.091Z,18.0620
2023-05-08T11:24:11.415Z,18.1169
2023-05-08T11:25:19.272Z,17.8429
2023-05-08T11:26:27.291Z,17.8530
2023-05-08T11:27:35.363Z,17.7382
2023-05-08T11:28:43.438Z,17.5980
2023-05-08T11:29:51.459Z,17.5229
2023-05-08T11:30:59.644Z,17.6957
2023-05-08T11:32:07.675Z,17.7927
2023-05-08T11:33:15.678Z,17.9531
2023-05-08T11:34:23.656Z,18.3068
2023-05-08T11:35:31.695Z,18.0544
2023-05-08T11:36:39.778Z,18.1552
2023-05-08T11:37:47.898Z,18.4149
2023-05-08T11:38:56.395Z,18.8214
2023-05-08T11:40:04.098Z,18.8872
2023-05-08T11:41:12.083Z,18.7894
2023-05-08T11:42:20.303Z,19.0978
2023-05-08T11:43:28.195Z,19.3792
2023-05-08T11:44:36.258Z,19.5020
2023-05-08T11:45:44.499Z,19.8787
2023-05-08T11:46:52.433Z,20.3288
2023-05-08T11:48:00.528Z,20.1606
2023-05-08T11:49:08.428Z,20.3493
2023-05-08T11:50:16.700Z,20.1196
2023-05-08T11:51:24.539Z,19.8281
2023-05-08T11:52:32.750Z,19.5862
2023-05-08T11:53:40.822Z,19.2738
2023-05-08T11:54:48.928Z,18.9022
2023-05-08T11:55:56.945Z,18.5934
2023-05-08T11:57:05.021Z,18.5285
2023-05-08T11:58:13.107Z,18.6082
2023-05-08T11:59:21.051Z,18.7606
2023-05-08T12:00:29.245Z,18.4703
2023-05-08T12:01:37.293Z,18.6399
2023-05-08T12:02:45.374Z,19.1285
2023-05-08T12:03:53.509Z,19.4791
2023-05-08T12:05:01.368Z,19.4104
2023-05-08T12:06:09.418Z,19.3301
2023-05-08T12:07:17.559Z,19.3162
2023-05-08T12:08:25.751Z,19.3601
2023-05-08T12:09:33.662Z,19.3883
2023-05-08T12:10:41.743Z,19.5232
2023-05-08T12:11:49.858Z,19.3492
2023-05-08T12:12:57.905Z,19.6857
2023-05-08T12:14:06.034Z,19.9352
2023-05-08T12:15:13.992Z,19.8305
2023-05-08T12:16:22.038Z,20.0157
2023-05-08T12:17:30.195Z,20.5238
2023-05-08T12:18:39.792Z,20.6100
2023-05-08T12:19:51.047Z,20.9692
2023-05-08T12:20:59.255Z,22.6753
2023-05-08T12:22:07.230Z,23.9010
2023-05-08T12:23:15.355Z,25.0355
2023-05-08T12:24:23.670Z,24.4595
2023-05-08T12:25:31.377Z,23.7398
2023-05-08T12:26:39.522Z,23.9206
2023-05-08T12:27:47.617Z,24.2066
2023-05-08T12:28:55.627Z,24.2582
2023-05-08T12:30:03.686Z,24.6834
2023-05-08T12:31:11.925Z,24.8904
2023-05-08T12:32:19.701Z,24.6224
2023-05-08T12:33:27.754Z,25.2861
2023-05-08T12:34:36.094Z,26.4271
2023-05-08T12:35:44.010Z,27.2053
2023-05-08T12:36:52.071Z,28.0587
2023-05-08T12:38:00.283Z,28.1138
2023-05-08T12:39:08.298Z,27.3116
2023-05-08T12:40:16.300Z,26.2350
2023-05-08T12:41:24.374Z,24.3546
2023-05-08T12:42:32.432Z,22.7249
2023-05-08T12:43:40.537Z,20.9140
2023-05-08T12:44:48.538Z,19.2745
2023-05-08T12:45:56.635Z,18.4989
2023-05-08T12:47:04.586Z,17.7133
2023-05-08T12:48:12.650Z,17.6902
2023-05-08T12:49:20.668Z,17.4436
2023-05-08T12:50:28.863Z,17.4445
2023-05-08T12:51:37.119Z,17.1567
2023-05-08T12:52:44.994Z,16.8660
2023-05-08T12:53:53.224Z,16.5194
2023-05-08T12:55:01.153Z,16.3909
2023-05-08T12:56:09.155Z,16.2204
2023-05-08T12:57:17.242Z,16.1284
2023-05-08T12:58:25.426Z,15.6182
2023-05-08T12:59:33.339Z,15.1251
2023-05-08T13:00:41.470Z,14.9859
2023-05-08T13:01:49.399Z,14.9064
2023-05-08T13:02:57.658Z,14.8009
2023-05-08T13:04:05.501Z,14.6550
2023-05-08T13:05:13.672Z,14.6222
2023-05-08T13:06:21.764Z,14.5773
2023-05-08T13:07:29.793Z,14.5236
2023-05-08T13:08:37.925Z,14.5764
2023-05-08T13:09:45.987Z,14.5186
2023-05-08T13:10:54.051Z,14.5989
2023-05-08T13:12:02.062Z,14.5516
2023-05-08T13:13:10.237Z,14.6315
2023-05-08T13:14:18.176Z,14.7658
2023-05-08T13:15:26.257Z,14.7318
2023-05-08T13:16:34.219Z,14.8736
2023-05-08T13:17:42.671Z,14.8028
2023-05-08T13:18:50.376Z,14.8200
2023-05-08T13:19:59.095Z,14.9438
2023-05-08T13:21:06.613Z,15.1030
2023-05-08T13:22:14.669Z,15.1377
2023-05-08T13:23:22.796Z,15.2171
2023-05-08T13:24:30.793Z,15.4734
2023-05-08T13:25:38.860Z,15.5268
2023-05-08T13:26:46.948Z,15.4545
2023-05-08T13:27:54.979Z,15.6169
2023-05-08T13:29:03.097Z,15.7174
2023-05-08T13:30:11.358Z,15.6953
2023-05-08T13:31:19.243Z,15.5646
2023-05-08T13:32:27.141Z,15.7195
2023-05-08T13:33:35.189Z,15.9154
2023-05-08T13:34:49.793Z,16.0470
2023-05-08T13:35:56.521Z,15.6753
2023-05-08T13:37:04.408Z,15.5045
2023-05-08T13:38:12.407Z,15.7681
2023-05-08T13:39:20.540Z,16.0788
2023-05-08T13:40:28.536Z,16.3703
2023-05-08T13:41:36.630Z,16.4485
2023-05-08T13:42:44.736Z,16.7235
2023-05-08T13:43:52.845Z,17.0947
2023-05-08T13:45:00.677Z,17.2212
2023-05-08T13:46:08.792Z,17.1838
2023-05-08T13:47:16.833Z,16.9927
2023-05-08T13:48:25.026Z,17.1205
2023-05-08T13:49:33.063Z,17.2587
2023-05-08T13:50:41.118Z,17.6375
2023-05-08T13:51:54.957Z,17.9048
2023-05-08T13:53:02.164Z,17.9033
2023-05-08T13:54:10.168Z,18.0415
2023-05-08T13:55:18.231Z,18.1979
2023-05-08T13:56:26.431Z,18.0005
2023-05-08T13:57:34.399Z,17.9313
2023-05-08T13:58:42.365Z,17.6719
2023-05-08T13:59:50.383Z,17.3934
2023-05-08T14:00:58.656Z,17.4575
2023-05-08T14:02:06.695Z,17.5563
2023-05-08T14:03:14.756Z,17.7281
2023-05-08T14:04:22.765Z,18.0387
2023-05-08T14:05:30.801Z,18.5580
2023-05-08T14:06:38.947Z,18.9574
2023-05-08T14:07:47.149Z,19.8198
2023-05-08T14:08:56.939Z,20.2253
2023-05-08T14:10:07.954Z,21.1819
2023-05-08T14:11:16.149Z,21.4527
2023-05-08T14:12:23.982Z,20.8246
2023-05-08T14:13:32.156Z,20.4095
2023-05-08T14:14:40.151Z,20.4713
2023-05-08T14:15:48.297Z,20.4883
2023-05-08T14:16:56.637Z,21.1210
2023-05-08T14:18:04.500Z,22.1992
2023-05-08T14:19:12.449Z,22.5410
2023-05-08T14:20:20.534Z,22.9963
2023-05-08T14:21:28.582Z,22.2624
2023-05-08T14:22:36.682Z,22.3385
2023-05-08T14:23:44.835Z,22.1435
2023-05-08T14:24:52.787Z,21.9499
2023-05-08T14:26:00.889Z,21.2585
2023-05-08T14:27:08.849Z,20.8162
2023-05-08T14:28:16.871Z,20.3317
2023-05-08T14:29:24.908Z,19.8553
2023-05-08T14:30:33.148Z,19.9327
2023-05-08T14:31:41.396Z,19.8160
2023-05-08T14:32:49.425Z,19.6720
2023-05-08T14:33:57.415Z,19.5743
2023-05-08T14:35:05.360Z,19.6124
2023-05-08T14:36:13.404Z,19.4228
2023-05-08T14:37:21.533Z,19.3557
2023-05-08T14:38:29.567Z,19.6266
2023-05-08T14:39:37.705Z,19.6466
2023-05-08T14:40:45.818Z,18.7650
2023-05-08T14:43:06.554Z,18.7240
2023-05-08T14:44:14.820Z,19.2512
2023-05-08T14:45:22.818Z,19.4959
2023-05-08T14:46:30.946Z,19.8152
2023-05-08T14:47:38.981Z,20.0078
2023-05-08T14:48:47.058Z,20.1164
2023-05-08T14:49:55.036Z,20.1242
2023-05-08T14:51:03.096Z,20.0199
2023-05-08T14:52:11.162Z,19.8209
2023-05-08T14:53:19.333Z,18.9184
2023-05-08T14:54:27.409Z,18.3492
2023-05-08T14:55:35.444Z,18.1316
2023-05-08T14:56:47.095Z,18.0482
2023-05-08T14:57:56.358Z,17.6427
2023-05-08T14:59:04.425Z,17.2814
2023-05-08T15:00:12.855Z,17.3800
2023-05-08T15:01:20.631Z,17.3047
2023-05-08T15:02:28.766Z,16.9358
2023-05-08T15:03:37.083Z,16.9686
2023-05-08T15:04:44.703Z,17.1102
2023-05-08T15:05:52.850Z,17.1847
2023-05-08T15:07:00.859Z,17.2175
2023-05-08T15:08:08.940Z,17.1063
2023-05-08T15:09:17.224Z,17.1157
2023-05-08T15:10:24.952Z,16.8294
2023-05-08T15:11:33.051Z,16.6564
2023-05-08T15:12:41.317Z,16.6003
2023-05-08T15:13:49.266Z,16.6133
2023-05-08T15:14:57.316Z,16.5761
2023-05-08T15:16:05.442Z,16.4592
2023-05-08T15:17:13.536Z,16.3136
2023-05-08T15:18:21.600Z,16.0338
2023-05-08T15:19:29.678Z,15.9140
2023-05-08T15:20:37.673Z,15.7738
2023-05-08T15:21:45.724Z,15.8459
2023-05-08T15:22:53.956Z,15.8063
2023-05-08T15:24:01.713Z,15.4784
2023-05-08T15:25:09.801Z,15.1457
2023-05-08T15:26:17.859Z,15.2205
2023-05-08T15:27:26.206Z,15.1894
2023-05-08T15:28:34.197Z,15.1477
2023-05-08T15:29:42.221Z,15.1751
2023-05-08T15:30:50.325Z,15.2016
2023-05-08T15:31:58.402Z,15.1650
2023-05-08T15:33:06.512Z,15.1812
2023-05-08T15:34:14.621Z,15.0323
2023-05-08T15:35:22.612Z,14.9314
2023-05-08T15:36:30.772Z,14.9295
2023-05-08T15:37:38.749Z,15.0080
2023-05-08T15:38:46.633Z,15.1265
2023-05-08T15:39:54.704Z,15.2386
2023-05-08T15:41:02.752Z,15.2808
2023-05-08T15:42:11.097Z,15.3632
2023-05-08T15:43:18.999Z,15.4446
2023-05-08T15:44:37.603Z,15.5627
2023-05-08T15:45:40.038Z,15.5484
2023-05-08T15:46:48.208Z,15.6167
2023-05-08T15:47:56.290Z,15.7246
2023-05-08T15:49:04.185Z,15.7229
2023-05-08T15:50:12.432Z,15.9108
2023-05-08T15:51:20.318Z,16.0899
2023-05-08T15:52:28.249Z,16.2463
2023-05-08T15:53:36.349Z,16.2703
2023-05-08T15:54:44.350Z,16.3579
2023-05-08T15:55:52.586Z,16.4864
2023-05-08T15:57:00.638Z,16.6532
2023-05-08T15:58:08.699Z,16.5719
2023-05-08T15:59:16.788Z,16.5759
2023-05-08T16:00:27.338Z,16.7346
2023-05-08T16:01:37.795Z,16.8482
2023-05-08T16:02:45.888Z,16.9211
2023-05-08T16:03:53.848Z,16.9351
2023-05-08T16:05:02.004Z,16.9877
2023-05-08T16:06:09.935Z,17.0257
2023-05-08T16:07:17.932Z,17.0127
2023-05-08T16:08:26.012Z,16.8893
2023-05-08T16:09:34.194Z,16.8790
2023-05-08T16:10:42.462Z,16.7764
2023-05-08T16:11:50.275Z,16.7495
2023-05-08T16:12:58.389Z,16.8382
2023-05-08T16:14:06.454Z,17.0751
2023-05-08T16:15:14.678Z,17.1239
2023-05-08T16:16:22.570Z,17.0342
2023-05-08T16:17:30.713Z,16.7603
2023-05-08T16:18:38.668Z,16.7600
2023-05-08T16:19:46.729Z,16.7989
2023-05-08T16:20:54.881Z,16.9040
2023-05-08T16:22:02.818Z,16.8651
2023-05-08T16:23:10.944Z,16.9715
2023-05-08T16:24:18.892Z,16.8494
2023-05-08T16:25:27.146Z,16.8631
2023-05-08T16:26:35.201Z,16.8305
2023-05-08T16:27:43.204Z,16.7737
2023-05-08T16:28:51.253Z,16.7592
2023-05-08T16:29:59.357Z,16.7130
2023-05-08T16:31:07.418Z,16.8187
2023-05-08T16:32:15.525Z,16.8660
2023-05-08T16:33:23.584Z,16.8862
2023-05-08T16:34:31.709Z,16.9499
2023-05-08T16:35:39.716Z,16.9591
2023-05-08T16:36:47.665Z,16.9177
2023-05-08T16:37:55.713Z,16.8033
2023-05-08T16:39:03.983Z,16.6816
2023-05-08T16:40:11.918Z,16.5000
2023-05-08T16:41:19.977Z,16.0813
2023-05-08T16:42:28.093Z,15.8776
2023-05-08T16:43:36.108Z,15.8089
2023-05-08T16:44:44.218Z,15.6716
2023-05-08T16:45:52.227Z,15.6523
2023-05-08T16:47:00.533Z,15.6762
2023-05-08T16:48:08.485Z,15.6445
2023-05-08T16:49:16.429Z,15.4679
2023-05-08T16:50:24.612Z,15.4301
2023-05-08T16:51:32.481Z,15.4689
2023-05-08T16:52:40.524Z,15.5461
2023-05-08T16:53:48.675Z,15.7077
2023-05-08T16:54:56.632Z,15.7859
2023-05-08T16:56:04.763Z,15.8803
2023-05-08T16:57:12.831Z,15.8080
2023-05-08T16:58:20.863Z,15.6867
2023-05-08T16:59:29.010Z,15.6514
2023-05-08T17:00:37.063Z,15.4164
2023-05-08T17:01:45.363Z,15.1923
2023-05-08T17:02:53.168Z,15.2646
2023-05-08T17:04:01.247Z,15.4338
2023-05-08T17:05:09.305Z,15.5450
2023-05-08T17:06:17.339Z,15.5961
2023-05-08T17:07:25.310Z,15.5963
2023-05-08T17:08:33.372Z,15.5909
2023-05-08T17:09:41.481Z,15.5415
2023-05-08T17:10:49.641Z,15.5669
2023-05-08T17:11:57.681Z,15.5886
2023-05-08T17:13:05.764Z,15.6592
2023-05-08T17:14:13.862Z,15.5158
2023-05-08T17:15:21.943Z,15.2697
2023-05-08T17:16:30.017Z,15.3485
2023-05-08T17:17:38.030Z,15.4948
2023-05-08T17:18:46.068Z,15.5686
2023-05-08T17:19:54.185Z,15.5427
2023-05-08T17:21:02.184Z,15.6211
2023-05-08T17:22:10.134Z,15.6949
2023-05-08T17:23:18.197Z,15.5408
2023-05-08T17:24:26.285Z,15.4978
2023-05-08T17:25:34.546Z,15.5167